createdAt,value
2022-10-06T00:00:41.262Z,100682.07
2022-10-06T00:02:45.733Z,100681.63
2022-10-06T00:04:50.224Z,100684.77
2022-10-06T00:06:54.582Z,100680.74
2022-10-06T00:08:58.923Z,100682.28
2022-10-06T00:11:03.282Z,100681.45
2022-10-06T00:13:07.618Z,100687.63
2022-10-06T00:15:11.978Z,100682.34
2022-10-06T00:17:16.330Z,100686.7
2022-10-06T00:19:20.646Z,100683.98
2022-10-06T00:21:24.964Z,100685.34
2022-10-06T00:23:29.356Z,100685.83
2022-10-06T00:25:33.729Z,100686.71
2022-10-06T00:27:38.076Z,100684.22
2022-10-06T00:29:42.373Z,100687.26
2022-10-06T00:31:46.686Z,100688.41
2022-10-06T00:33:51.030Z,100688.2
2022-10-06T00:35:55.377Z,100685.58
2022-10-06T00:37:59.702Z,100685.17
2022-10-06T00:40:04.247Z,100685.01
2022-10-06T00:42:08.617Z,100683.34
2022-10-06T00:44:13.503Z,100687.09
2022-10-06T00:46:18.021Z,100689.44
2022-10-06T00:48:22.631Z,100686.23
2022-10-06T00:50:26.951Z,100687.39
2022-10-06T00:52:31.305Z,100687.97
2022-10-06T00:54:35.656Z,100689.3
2022-10-06T00:56:39.975Z,100690.33
2022-10-06T00:58:44.712Z,100690.33
2022-10-06T01:00:49.059Z,100690.43
2022-10-06T01:02:53.498Z,100688.55
2022-10-06T01:04:57.954Z,100684.84
2022-10-06T01:07:02.321Z,100688.9
2022-10-06T01:09:06.805Z,100687.19
2022-10-06T01:11:11.146Z,100692.78
2022-10-06T01:13:15.512Z,100690.19
2022-10-06T01:15:19.885Z,100689.75
2022-10-06T01:17:24.221Z,100693.5
2022-10-06T01:19:28.576Z,100694.7
2022-10-06T01:21:32.903Z,100693.3
2022-10-06T01:23:37.232Z,100692.82
2022-10-06T01:25:41.614Z,100694.45
2022-10-06T01:27:45.970Z,100695.27
2022-10-06T01:29:50.286Z,100689.45
2022-10-06T01:31:54.632Z,100691.46
2022-10-06T01:33:58.959Z,100693.68
2022-10-06T01:36:03.272Z,100688.53
2022-10-06T01:38:07.628Z,100693.71
2022-10-06T01:40:12.059Z,100691.88
2022-10-06T01:42:16.564Z,100691.39
2022-10-06T01:44:20.894Z,100691.16
2022-10-06T01:46:25.392Z,100692.76
2022-10-06T01:48:30.702Z,100697.63
2022-10-06T01:50:35.934Z,100698.59
2022-10-06T01:52:40.261Z,100708.2
2022-10-06T01:54:44.560Z,100704.97
2022-10-06T01:56:48.910Z,100704.35
2022-10-06T01:58:53.247Z,100708.44
2022-10-06T02:00:57.577Z,100708.58
2022-10-06T02:03:01.903Z,100711.3
2022-10-06T02:05:06.235Z,100706.56
2022-10-06T02:07:10.544Z,100706.3
2022-10-06T02:09:14.907Z,100712.56
2022-10-06T02:11:19.218Z,100711.88
2022-10-06T02:13:23.548Z,100715.05
2022-10-06T02:15:27.902Z,100719.08
2022-10-06T02:17:32.269Z,100718.91
2022-10-06T02:19:36.594Z,100721.59
2022-10-06T02:21:40.910Z,100726.67
2022-10-06T02:23:45.282Z,100723.5
2022-10-06T02:25:49.623Z,100723.09
2022-10-06T02:27:53.954Z,100727.12
2022-10-06T02:29:58.408Z,100731.98
2022-10-06T02:32:02.740Z,100732.64
2022-10-06T02:34:07.062Z,100732.77
2022-10-06T02:36:11.424Z,100735.84
2022-10-06T02:38:15.783Z,100738.94
2022-10-06T02:40:20.104Z,100739.08
2022-10-06T02:42:24.422Z,100743.27
2022-10-06T02:44:28.774Z,100744.42
2022-10-06T02:46:33.233Z,100742.89
2022-10-06T02:48:38.009Z,100744.02
2022-10-06T02:50:42.330Z,100746.77
2022-10-06T02:52:46.760Z,100750.31
2022-10-06T02:54:51.072Z,100755.02
2022-10-06T02:56:55.414Z,100751.81
2022-10-06T02:58:59.757Z,100753.25
2022-10-06T03:01:04.068Z,100753.69
2022-10-06T03:03:08.611Z,100754.47
2022-10-06T03:05:13.084Z,100754.41
2022-10-06T03:07:17.422Z,100758.33
2022-10-06T03:09:21.760Z,100756.98
2022-10-06T03:11:26.533Z,100760.84
2022-10-06T03:13:30.903Z,100759.2
2022-10-06T03:15:35.227Z,100765.03
2022-10-06T03:17:39.588Z,100767.97
2022-10-06T03:19:43.939Z,100770.38
2022-10-06T03:21:48.246Z,100775.29
2022-10-06T03:23:52.593Z,100781.52
2022-10-06T03:25:56.933Z,100783.36
2022-10-06T03:28:01.451Z,100784.93
2022-10-06T03:30:05.881Z,100783.33
2022-10-06T03:32:10.217Z,100791.67
2022-10-06T03:34:14.538Z,100787.34
2022-10-06T03:36:18.970Z,100792.25
2022-10-06T03:38:23.266Z,100792.08
2022-10-06T03:40:27.676Z,100790.92
2022-10-06T03:42:31.978Z,100791
2022-10-06T03:44:36.306Z,100792.77
2022-10-06T03:46:40.787Z,100796.75
2022-10-06T03:48:45.225Z,100798.02
2022-10-06T03:50:49.538Z,100797.3
2022-10-06T03:52:53.827Z,100803.73
2022-10-06T03:54:58.177Z,100808.16
2022-10-06T03:57:02.505Z,100806.86
2022-10-06T03:59:06.836Z,100806.97
2022-10-06T04:01:11.330Z,100807.88
2022-10-06T04:03:15.845Z,100815.04
2022-10-06T04:05:20.187Z,100818.95
2022-10-06T04:07:24.519Z,100817.72
2022-10-06T04:09:28.890Z,100816.19
2022-10-06T04:11:33.262Z,100815.77
2022-10-06T04:13:37.594Z,100819.08
2022-10-06T04:15:41.944Z,100824.77
2022-10-06T04:17:46.299Z,100819.31
2022-10-06T04:19:50.650Z,100823.36
2022-10-06T04:21:54.975Z,100829.09
2022-10-06T04:23:59.303Z,100824.97
2022-10-06T04:26:03.652Z,100823.3
2022-10-06T04:28:08.115Z,100823.44
2022-10-06T04:30:12.720Z,100825.41
2022-10-06T04:32:17.114Z,100828.06
2022-10-06T04:34:21.444Z,100836.65
2022-10-06T04:36:25.778Z,100831.64
2022-10-06T04:38:30.694Z,100833.81
2022-10-06T04:40:36.039Z,100836.81
2022-10-06T04:42:40.392Z,100840.66
2022-10-06T04:44:44.866Z,100843.66
2022-10-06T04:46:49.595Z,100851.52
2022-10-06T04:48:54.013Z,100847.91
2022-10-06T04:50:58.316Z,100850.19
2022-10-06T04:53:02.678Z,100858.09
2022-10-06T04:55:06.982Z,100855.41
2022-10-06T04:57:11.341Z,100861.2
2022-10-06T04:59:15.665Z,100863.44
2022-10-06T05:01:20.180Z,100866.84
2022-10-06T05:03:24.660Z,100871.69
2022-10-06T05:05:28.975Z,100880.52
2022-10-06T05:07:33.312Z,100882.91
2022-10-06T05:09:37.649Z,100890.67
2022-10-06T05:11:42.007Z,100892.06
2022-10-06T05:13:46.354Z,100889.03
2022-10-06T05:15:50.722Z,100895.63
2022-10-06T05:17:55.034Z,100897.4
2022-10-06T05:19:59.340Z,100903.73
2022-10-06T05:22:03.682Z,100899.79
2022-10-06T05:24:08.507Z,100905.33
2022-10-06T05:26:12.818Z,100907.13
2022-10-06T05:28:17.270Z,100905.99
2022-10-06T05:30:21.721Z,100906.63
2022-10-06T05:32:26.058Z,100910.94
2022-10-06T05:34:30.368Z,100906.9
2022-10-06T05:36:34.778Z,100908.24
2022-10-06T05:38:39.085Z,100909.72
2022-10-06T05:40:43.409Z,100911.94
2022-10-06T05:42:47.771Z,100916.48
2022-10-06T05:44:52.096Z,100918.47
2022-10-06T05:46:56.455Z,100916.56
2022-10-06T05:49:00.778Z,100925.26
2022-10-06T05:51:05.136Z,100921.95
2022-10-06T05:53:09.482Z,100916.73
2022-10-06T05:55:13.845Z,100931.33
2022-10-06T05:57:18.265Z,100931.13
2022-10-06T05:59:22.657Z,100942.39
2022-10-06T06:01:27.129Z,100945.59
2022-10-06T06:03:31.846Z,100952.5
2022-10-06T06:05:36.213Z,100956.28
2022-10-06T06:07:40.601Z,100964.56
2022-10-06T06:09:45.143Z,100966.37
2022-10-06T06:11:49.482Z,100968.71
2022-10-06T06:13:53.850Z,100971.64
2022-10-06T06:15:58.202Z,100965.84
2022-10-06T06:18:02.652Z,100970.55
2022-10-06T06:20:06.973Z,100977.98
2022-10-06T06:22:11.362Z,100980.34
2022-10-06T06:24:15.698Z,100980.05
2022-10-06T06:26:20.026Z,100983.09
2022-10-06T06:28:24.519Z,100988.35
2022-10-06T06:30:28.981Z,100986.73
2022-10-06T06:32:33.328Z,100993.97
2022-10-06T06:34:37.646Z,100999.95
2022-10-06T06:36:42.369Z,101000.5
2022-10-06T06:38:46.722Z,101006.66
2022-10-06T06:40:51.057Z,101004.55
2022-10-06T06:42:55.409Z,101005.17
2022-10-06T06:44:59.752Z,101006.78
2022-10-06T06:47:04.100Z,101010.02
2022-10-06T06:49:08.470Z,101010.23
2022-10-06T06:51:12.838Z,101013.02
2022-10-06T06:53:17.492Z,101015.72
2022-10-06T06:55:21.831Z,101019.06
2022-10-06T06:57:26.165Z,101022.14
2022-10-06T06:59:30.680Z,101025.66
2022-10-06T07:01:35.099Z,101033.56
2022-10-06T07:03:58.880Z,101038.42
2022-10-06T07:06:03.409Z,101040.2
2022-10-06T07:08:07.773Z,101042.8
2022-10-06T07:10:12.163Z,101043.07
2022-10-06T07:12:16.548Z,101046.45
2022-10-06T07:14:20.926Z,101045.36
2022-10-06T07:16:25.292Z,101051.95
2022-10-06T07:18:30.871Z,101051.57
2022-10-06T07:20:35.857Z,101049.97
2022-10-06T07:22:40.206Z,101049.48
2022-10-06T07:24:44.636Z,101055.36
2022-10-06T07:26:49.003Z,101061.59
2022-10-06T07:28:53.366Z,101065.78
2022-10-06T07:30:57.823Z,101066.84
2022-10-06T07:33:02.237Z,101070.02
2022-10-06T07:35:06.635Z,101070.53
2022-10-06T07:37:14.164Z,101071.01
2022-10-06T07:39:18.549Z,101074.59
2022-10-06T07:41:22.876Z,101079.54
2022-10-06T07:43:27.279Z,101077.52
2022-10-06T07:45:31.843Z,101081.62
2022-10-06T07:47:36.506Z,101086.08
2022-10-06T07:49:40.909Z,101087.48
2022-10-06T07:51:45.358Z,101090.42
2022-10-06T07:53:49.718Z,101091.11
2022-10-06T07:55:54.042Z,101096.02
2022-10-06T07:57:58.353Z,101097.48
2022-10-06T08:00:04.391Z,101098.92
2022-10-06T08:02:09.384Z,101102.95
2022-10-06T08:04:13.920Z,101104.69
2022-10-06T08:06:18.293Z,101107.17
2022-10-06T08:08:22.610Z,101112.67
2022-10-06T08:10:27.395Z,101115.09
2022-10-06T08:12:31.753Z,101117.79
2022-10-06T08:14:36.267Z,101121.86
2022-10-06T08:16:40.621Z,101127.03
2022-10-06T08:18:48.071Z,101131.06
2022-10-06T08:20:52.418Z,101135.16
2022-10-06T08:22:56.782Z,101142.29
2022-10-06T08:25:08.849Z,101147.38
2022-10-06T08:27:14.080Z,101144
2022-10-06T08:29:18.438Z,101143.18
2022-10-06T08:31:23.053Z,101149.33
2022-10-06T08:33:27.646Z,101147.48
2022-10-06T08:35:32.034Z,101157.25
2022-10-06T08:37:36.400Z,101160.14
2022-10-06T08:39:40.783Z,101166.39
2022-10-06T08:41:45.175Z,101165.53
2022-10-06T08:43:49.523Z,101169.97
2022-10-06T08:47:59.609Z,101178.81
2022-10-06T08:50:03.921Z,101176.42
2022-10-06T08:52:08.251Z,101185.16
2022-10-06T08:54:12.616Z,101191.44
2022-10-06T08:56:16.939Z,101194
2022-10-06T08:58:21.346Z,101196.59
2022-10-06T09:00:25.719Z,101197.06
2022-10-06T09:02:30.454Z,101205.02
2022-10-06T09:04:34.995Z,101210.11
2022-10-06T09:06:39.300Z,101214.95
2022-10-06T09:08:43.626Z,101211.16
2022-10-06T09:10:48.006Z,101218.03
2022-10-06T09:12:52.370Z,101221.5
2022-10-06T09:14:56.932Z,101222.98
2022-10-06T09:17:01.291Z,101223.27
2022-10-06T09:19:09.957Z,101226.7
2022-10-06T09:21:14.282Z,101228.34
2022-10-06T09:23:18.659Z,101232.74
2022-10-06T09:25:23.030Z,101235.67
2022-10-06T09:27:27.359Z,101234.99
2022-10-06T09:29:31.705Z,101234.91
2022-10-06T09:31:36.164Z,101236.11
2022-10-06T09:33:40.692Z,101238.73
2022-10-06T09:35:45.036Z,101244.88
2022-10-06T09:37:49.357Z,101245.94
2022-10-06T09:39:54.065Z,101254.94
2022-10-06T09:41:59.236Z,101262.81
2022-10-06T09:44:03.585Z,101271.05
2022-10-06T09:48:12.316Z,101282.72
2022-10-06T09:50:16.669Z,101280.23
2022-10-06T09:52:21.300Z,101284.22
2022-10-06T09:54:25.650Z,101282.62
2022-10-06T09:56:30.050Z,101288.83
2022-10-06T09:58:34.410Z,101296.14
2022-10-06T10:00:38.864Z,101296.37
2022-10-06T10:02:43.459Z,101297.22
2022-10-06T10:04:52.458Z,101298.89
2022-10-06T10:06:56.837Z,101308
2022-10-06T10:09:01.233Z,101314.83
2022-10-06T10:11:05.574Z,101323.86
2022-10-06T10:13:09.928Z,101326.48
2022-10-06T10:15:14.283Z,101336.53
2022-10-06T10:17:18.645Z,101339.41
2022-10-06T10:19:23.071Z,101342.14
2022-10-06T10:21:27.532Z,101345.77
2022-10-06T10:23:33.115Z,101350.81
2022-10-06T10:25:37.485Z,101347.77
2022-10-06T10:27:41.870Z,101350.69
2022-10-06T10:29:46.263Z,101352.09
2022-10-06T10:31:50.761Z,101352.14
2022-10-06T10:34:23.465Z,101355.94
2022-10-06T10:36:28.931Z,101360.01
2022-10-06T10:38:33.280Z,101360.6
2022-10-06T10:40:37.659Z,101363.71
2022-10-06T10:42:42.064Z,101366.88
2022-10-06T10:44:46.427Z,101371.95
2022-10-06T10:46:50.966Z,101374
2022-10-06T10:48:55.385Z,101374.47
2022-10-06T10:50:59.735Z,101378.44
2022-10-06T10:53:04.132Z,101378.89
2022-10-06T10:55:08.694Z,101386.06
2022-10-06T10:57:13.052Z,101380.92
2022-10-06T10:59:17.766Z,101383.26
2022-10-06T11:01:22.266Z,101383.3
2022-10-06T11:03:26.636Z,101387.5
2022-10-06T11:05:31.001Z,101390.02
2022-10-06T11:07:35.413Z,101393.25
2022-10-06T11:09:39.745Z,101400.28
2022-10-06T11:11:46.473Z,101396.11
2022-10-06T11:13:55.994Z,101397.5
2022-10-06T11:16:00.674Z,101399.56
2022-10-06T11:18:05.063Z,101400.72
2022-10-06T11:20:09.440Z,101403.3
2022-10-06T11:22:13.756Z,101401.3
2022-10-06T11:24:18.129Z,101406.89
2022-10-06T11:26:22.491Z,101412.67
2022-10-06T11:28:27.105Z,101413.81
2022-10-06T11:30:31.624Z,101415.83
2022-10-06T11:32:35.970Z,101416.22
2022-10-06T11:34:40.322Z,101415
2022-10-06T11:36:44.689Z,101418.05
2022-10-06T11:38:49.029Z,101415.79
2022-10-06T11:40:53.385Z,101422.77
2022-10-06T11:42:57.713Z,101420.81
2022-10-06T11:45:02.913Z,101417.59
2022-10-06T11:47:07.341Z,101422.69
2022-10-06T11:49:11.735Z,101419.38
2022-10-06T11:51:16.181Z,101421.06
2022-10-06T11:53:20.545Z,101417.13
2022-10-06T11:55:24.971Z,101418.41
2022-10-06T11:57:32.290Z,101418.86
2022-10-06T11:59:36.634Z,101419.48
2022-10-06T12:01:41.104Z,101427.74
2022-10-06T12:03:45.536Z,101425.23
2022-10-06T12:05:57.572Z,101426.61
2022-10-06T12:08:02.034Z,101426.64
2022-10-06T12:10:06.438Z,101425.59
2022-10-06T12:12:10.813Z,101431.62
2022-10-06T12:16:32.217Z,101428.69
2022-10-06T12:19:17.517Z,101423.39
2022-10-06T12:21:21.883Z,101430.3
2022-10-06T12:23:26.226Z,101433.55
2022-10-06T12:25:30.611Z,101432.75
2022-10-06T12:27:34.979Z,101442.24
2022-10-06T12:29:39.351Z,101443.89
2022-10-06T12:31:43.746Z,101443.94
2022-10-06T12:33:48.103Z,101449.38
2022-10-06T12:35:52.467Z,101453.45
2022-10-06T12:37:56.772Z,101450.25
2022-10-06T12:40:01.187Z,101453.27
2022-10-06T12:42:05.535Z,101458.61
2022-10-06T12:44:09.895Z,101451.23
2022-10-06T12:46:14.370Z,101460.6
2022-10-06T12:48:18.792Z,101464.73
2022-10-06T12:50:23.173Z,101462.8
2022-10-06T12:52:27.531Z,101463.3
2022-10-06T12:54:31.869Z,101463.85
2022-10-06T12:56:36.259Z,101465.91
2022-10-06T12:58:40.732Z,101466.98
2022-10-06T13:00:45.155Z,101468.11
2022-10-06T13:02:49.736Z,101466.45
2022-10-06T13:04:54.261Z,101470.92
2022-10-06T13:06:59.126Z,101468.44
2022-10-06T13:09:05.509Z,101471.77
2022-10-06T13:11:09.907Z,101473.88
2022-10-06T13:13:14.294Z,101478.06
2022-10-06T13:15:18.855Z,101478.42
2022-10-06T13:17:23.442Z,101470.55
2022-10-06T13:19:27.824Z,101474.28
2022-10-06T13:21:32.167Z,101475.39
2022-10-06T13:23:36.566Z,101471.88
2022-10-06T13:25:40.993Z,101467.53
2022-10-06T13:27:45.437Z,101470.06
2022-10-06T13:29:49.807Z,101473.2
2022-10-06T13:31:54.584Z,101463.3
2022-10-06T13:33:59.106Z,101469.74
2022-10-06T13:36:03.574Z,101471.31
2022-10-06T13:38:07.984Z,101468.92
2022-10-06T13:40:43.322Z,101467.05
2022-10-06T13:42:49.334Z,101464.67
2022-10-06T13:44:53.720Z,101471.52
2022-10-06T13:46:58.068Z,101471.83
2022-10-06T13:49:02.478Z,101476.62
2022-10-06T13:51:06.882Z,101473.72
2022-10-06T13:53:11.318Z,101475.59
2022-10-06T13:55:15.739Z,101490.42
2022-10-06T13:57:20.180Z,101488.55
2022-10-06T13:59:24.638Z,101486.88
2022-10-06T14:01:29.132Z,101480.19
2022-10-06T14:03:33.852Z,101485.73
2022-10-06T14:05:39.240Z,101495.48
2022-10-06T14:07:43.635Z,101493.39
2022-10-06T14:09:48.052Z,101485.73
2022-10-06T14:11:52.415Z,101489.66
2022-10-06T14:13:56.907Z,101489.03
2022-10-06T14:16:01.364Z,101487.3
2022-10-06T14:18:06.046Z,101496.84
2022-10-06T14:20:10.433Z,101491.77
2022-10-06T14:22:14.784Z,101499.09
2022-10-06T14:24:19.149Z,101497.73
2022-10-06T14:26:23.608Z,101498.86
2022-10-06T14:28:28.251Z,101494.52
2022-10-06T14:30:32.920Z,101496.67
2022-10-06T14:32:37.421Z,101501.59
2022-10-06T14:34:41.853Z,101499.91
2022-10-06T14:36:46.212Z,101501.85
2022-10-06T14:38:50.593Z,101505.41
2022-10-06T14:40:54.992Z,101511.73
2022-10-06T14:42:59.413Z,101509.85
2022-10-06T14:45:04.280Z,101512.05
2022-10-06T14:47:08.624Z,101513.09
2022-10-06T14:49:12.963Z,101511.08
2022-10-06T14:51:17.393Z,101509.89
2022-10-06T14:53:22.055Z,101511.98
2022-10-06T14:55:26.450Z,101517.91
2022-10-06T14:57:30.821Z,101512.89
2022-10-06T14:59:35.226Z,101516.25
2022-10-06T15:01:39.578Z,101514.86
2022-10-06T15:03:49.953Z,101522.25
2022-10-06T15:05:54.623Z,101514.05
2022-10-06T15:07:59.006Z,101512.58
2022-10-06T15:10:03.338Z,101516.45
2022-10-06T15:12:07.792Z,101519.55
2022-10-06T15:14:12.173Z,101520.72
2022-10-06T15:16:16.637Z,101520.45
2022-10-06T15:18:21.192Z,101524.7
2022-10-06T15:20:25.546Z,101524.09
2022-10-06T15:22:29.929Z,101525.49
2022-10-06T15:24:34.813Z,101523.72
2022-10-06T15:26:39.183Z,101522.84
2022-10-06T15:28:43.652Z,101526.03
2022-10-06T15:30:48.224Z,101531.61
2022-10-06T15:32:52.740Z,101528.39
2022-10-06T15:34:57.105Z,101530.36
2022-10-06T15:37:01.441Z,101535.56
2022-10-06T15:39:05.857Z,101538.25
2022-10-06T15:41:10.132Z,101539.26
2022-10-06T15:43:14.453Z,101537.67
2022-10-06T15:45:18.817Z,101534.54
2022-10-06T15:47:23.212Z,101539.98
2022-10-06T15:49:27.556Z,101543.48
2022-10-06T15:51:31.944Z,101547.67
2022-10-06T15:53:36.334Z,101545.26
2022-10-06T15:55:40.659Z,101544.92
2022-10-06T15:57:45.067Z,101545.93
2022-10-06T15:59:49.440Z,101547.83
2022-10-06T16:01:54.352Z,101545.47
2022-10-06T16:03:59.016Z,101549.61
2022-10-06T16:06:03.396Z,101549.48
2022-10-06T16:08:07.773Z,101550.85
2022-10-06T16:10:12.179Z,101556
2022-10-06T16:12:16.637Z,101560.33
2022-10-06T16:14:20.976Z,101558.11
2022-10-06T16:16:25.437Z,101554.99
2022-10-06T16:18:30.010Z,101564.02
2022-10-06T16:20:34.394Z,101566.91
2022-10-06T16:22:39.481Z,101569.7
2022-10-06T16:24:44.843Z,101570.75
2022-10-06T16:26:49.326Z,101569.41
2022-10-06T16:28:53.979Z,101577.27
2022-10-06T16:30:58.906Z,101573.63
2022-10-06T16:33:03.579Z,101577.73
2022-10-06T16:35:08.157Z,101576.2
2022-10-06T16:37:12.757Z,101576.64
2022-10-06T16:39:17.338Z,101575.23
2022-10-06T16:41:21.916Z,101579.19
2022-10-06T16:43:26.479Z,101579
2022-10-06T16:45:31.038Z,101577.91
2022-10-06T16:47:35.674Z,101584.71
2022-10-06T16:49:40.231Z,101583.39
2022-10-06T16:51:44.780Z,101588.51
2022-10-06T16:53:49.354Z,101590.2
2022-10-06T16:55:53.863Z,101591.72
2022-10-06T16:57:58.390Z,101596.24
2022-10-06T17:00:03.261Z,101601.63
2022-10-06T17:02:07.867Z,101604.48
2022-10-06T17:04:12.620Z,101612.09
2022-10-06T17:06:17.277Z,101612.27
2022-10-06T17:08:21.764Z,101611.21
2022-10-06T17:10:26.344Z,101611.23
2022-10-06T17:12:30.890Z,101616.52
2022-10-06T17:14:35.444Z,101616.38
2022-10-06T17:16:40.213Z,101619.19
2022-10-06T17:18:44.948Z,101619.13
2022-10-06T17:20:49.474Z,101625.08
2022-10-06T17:22:54.002Z,101625.97
2022-10-06T17:24:58.542Z,101634.55
2022-10-06T17:27:03.084Z,101629.11
2022-10-06T17:29:07.585Z,101632.91
2022-10-06T17:31:12.293Z,101629.86
2022-10-06T17:33:16.848Z,101627.92
2022-10-06T17:35:21.407Z,101632.16
2022-10-06T17:37:25.979Z,101637.41
2022-10-06T17:39:30.492Z,101637.53
2022-10-06T17:41:35.030Z,101635.42
2022-10-06T17:43:39.526Z,101635.6
2022-10-06T17:45:44.199Z,101634.84
2022-10-06T17:47:48.902Z,101637.3
2022-10-06T17:49:53.418Z,101631.17
2022-10-06T17:51:57.956Z,101631.38
2022-10-06T17:54:02.524Z,101629.83
2022-10-06T17:56:07.088Z,101629.86
2022-10-06T17:58:18.628Z,101629.91
2022-10-06T18:00:23.380Z,101637.22
2022-10-06T18:02:28.199Z,101640
2022-10-06T18:04:32.932Z,101640.61
2022-10-06T18:06:37.421Z,101641.23
2022-10-06T18:08:41.908Z,101643.36
2022-10-06T18:10:46.502Z,101647.37
2022-10-06T18:12:51.075Z,101653.6
2022-10-06T18:14:55.593Z,101652.45
2022-10-06T18:17:00.343Z,101651.18
2022-10-06T18:19:05.100Z,101657.19
2022-10-06T18:21:09.671Z,101655.73
2022-10-06T18:23:14.237Z,101655.45
2022-10-06T18:25:21.019Z,101656.79
2022-10-06T18:27:30.437Z,101657.16
2022-10-06T18:29:35.008Z,101659.55
2022-10-06T18:31:39.747Z,101658.36
2022-10-06T18:38:14.554Z,101663.06
2022-10-06T18:40:19.241Z,101663.41
2022-10-06T18:42:23.798Z,101661.13
2022-10-06T18:44:28.316Z,101667.55
2022-10-06T18:46:33.111Z,101667.75
2022-10-06T18:48:37.708Z,101668.7
2022-10-06T18:50:42.274Z,101666.65
2022-10-06T18:52:46.793Z,101669.19
2022-10-06T18:54:51.336Z,101670.19
2022-10-06T18:56:55.906Z,101669.72
2022-10-06T18:59:00.456Z,101676.58
2022-10-06T19:01:05.334Z,101675.61
2022-10-06T19:03:10.088Z,101676.22
2022-10-06T19:05:14.742Z,101681.45
2022-10-06T19:07:19.289Z,101680.15
2022-10-06T19:09:23.832Z,101683.83
2022-10-06T19:11:28.388Z,101680.45
2022-10-06T19:13:32.935Z,101683.8
2022-10-06T19:15:37.468Z,101680.59
2022-10-06T19:17:42.617Z,101688.1
2022-10-06T19:19:47.914Z,101690.62
2022-10-06T19:21:52.462Z,101693.25
2022-10-06T19:23:56.978Z,101691.06
2022-10-06T19:26:01.537Z,101693.39
2022-10-06T19:28:06.172Z,101694.98
2022-10-06T19:30:10.821Z,101697.12
2022-10-06T19:32:15.361Z,101699.65
2022-10-06T19:34:19.888Z,101702.41
2022-10-06T19:36:24.392Z,101700.2
2022-10-06T19:38:28.934Z,101702.03
2022-10-06T19:40:33.477Z,101701.89
2022-10-06T19:42:38.005Z,101702.14
2022-10-06T19:44:44.353Z,101703.52
2022-10-06T19:46:48.885Z,101708.72
2022-10-06T19:48:53.401Z,101708.3
2022-10-06T19:50:57.909Z,101708.58
2022-10-06T19:53:02.455Z,101713.31
2022-10-06T19:55:07.004Z,101711.22
2022-10-06T19:57:11.598Z,101714.31
2022-10-06T19:59:16.189Z,101713.8
2022-10-06T20:01:20.951Z,101715.52
2022-10-06T20:03:25.639Z,101717.61
2022-10-06T20:05:30.217Z,101718.32
2022-10-06T20:07:34.765Z,101720.24
2022-10-06T20:09:39.275Z,101720.1
2022-10-06T20:11:43.780Z,101717.61
2022-10-06T20:13:48.329Z,101716.38
2022-10-06T20:15:52.846Z,101719.5
2022-10-06T20:17:57.423Z,101718.58
2022-10-06T20:20:01.928Z,101716.08
2022-10-06T20:22:06.430Z,101714.53
2022-10-06T20:24:11.024Z,101720.64
2022-10-06T20:26:15.561Z,101724.18
2022-10-06T20:28:20.226Z,101726.3
2022-10-06T20:30:24.882Z,101723.3
2022-10-06T20:32:29.414Z,101722.11
2022-10-06T20:34:34.348Z,101724.81
2022-10-06T20:36:38.875Z,101727.23
2022-10-06T20:38:43.390Z,101721.41
2022-10-06T20:40:47.913Z,101726.86
2022-10-06T20:42:52.429Z,101727.59
2022-10-06T20:44:57.014Z,101726.55
2022-10-06T20:47:01.546Z,101726.14
2022-10-06T20:49:06.073Z,101727.53
2022-10-06T20:51:10.566Z,101726.08
2022-10-06T20:53:15.126Z,101724.15
2022-10-06T20:55:19.699Z,101725.76
2022-10-06T20:57:24.218Z,101728.25
2022-10-06T20:59:28.718Z,101725.13
2022-10-06T21:01:33.452Z,101724.63
2022-10-06T21:03:38.234Z,101726.17
2022-10-06T21:05:42.856Z,101723.99
2022-10-06T21:07:48.004Z,101728.48
2022-10-06T21:09:53.547Z,101726.5
2022-10-06T21:11:58.226Z,101725.27
2022-10-06T21:14:02.863Z,101728.03
2022-10-06T21:16:07.659Z,101732.28
2022-10-06T21:18:12.445Z,101734.58
2022-10-06T21:20:17.114Z,101733.61
2022-10-06T21:22:21.761Z,101734.25
2022-10-06T21:24:26.522Z,101736.52
2022-10-06T21:26:31.157Z,101735.67
2022-10-06T21:28:35.961Z,101736.8
2022-10-06T21:30:40.760Z,101732.68
2022-10-06T21:32:45.408Z,101731.26
2022-10-06T21:34:50.074Z,101726.33
2022-10-06T21:36:54.695Z,101727.23
2022-10-06T21:38:59.359Z,101732.81
2022-10-06T21:41:03.995Z,101730.63
2022-10-06T21:43:08.618Z,101731.86
2022-10-06T21:45:13.264Z,101734.45
2022-10-06T21:47:18.345Z,101730.27
2022-10-06T21:49:23.127Z,101731.89
2022-10-06T21:51:27.740Z,101731.69
2022-10-06T21:53:32.381Z,101735.11
2022-10-06T21:55:36.988Z,101734.22
2022-10-06T21:57:41.872Z,101736.93
2022-10-06T21:59:47.013Z,101735.66
2022-10-06T22:01:52.129Z,101731.67
2022-10-06T22:03:56.903Z,101733.45
2022-10-06T22:06:01.537Z,101732.46
2022-10-06T22:08:06.257Z,101733.22
2022-10-06T22:10:10.871Z,101730.38
2022-10-06T22:12:15.487Z,101733.77
2022-10-06T22:14:20.117Z,101730.86
2022-10-06T22:16:24.896Z,101735.62
2022-10-06T22:18:29.690Z,101736.58
2022-10-06T22:20:34.319Z,101731.78
2022-10-06T22:22:38.981Z,101734.95
2022-10-06T22:24:43.632Z,101734.34
2022-10-06T22:26:48.268Z,101732.8
2022-10-06T22:28:52.890Z,101731.7
2022-10-06T22:30:57.609Z,101735.7
2022-10-06T22:33:02.387Z,101731.57
2022-10-06T22:35:07.008Z,101729.38
2022-10-06T22:37:11.624Z,101725.44
2022-10-06T22:39:16.380Z,101728.08
2022-10-06T22:41:21.076Z,101736.06
2022-10-06T22:43:25.773Z,101735.09
2022-10-06T22:45:30.387Z,101734.94
2022-10-06T22:47:35.065Z,101726.39
2022-10-06T22:49:39.663Z,101724.48
2022-10-06T22:51:44.309Z,101729.05
2022-10-06T22:53:48.985Z,101719.2
2022-10-06T22:55:59.014Z,101717.13
2022-10-06T22:58:03.801Z,101715.98
2022-10-06T23:00:08.438Z,101713.27
2022-10-06T23:02:13.189Z,101713.5
2022-10-06T23:04:17.827Z,101710.44
2022-10-06T23:06:22.443Z,101710.1
2022-10-06T23:08:35.026Z,101706.81
2022-10-06T23:10:39.997Z,101711.41
2022-10-06T23:12:44.626Z,101716.66
2022-10-06T23:14:49.262Z,101716.31
2022-10-06T23:16:54.112Z,101714.1
2022-10-06T23:18:58.839Z,101713.77
2022-10-06T23:21:03.473Z,101716.91
2022-10-06T23:23:08.108Z,101717.88
2022-10-06T23:25:12.733Z,101716.7
2022-10-06T23:27:17.345Z,101715.71
2022-10-06T23:29:22.012Z,101714.94
2022-10-06T23:31:26.890Z,101712.5
2022-10-06T23:33:31.645Z,101712.45
2022-10-06T23:35:36.296Z,101717.55
2022-10-06T23:37:40.999Z,101721.83
2022-10-06T23:39:46.346Z,101717.38
2022-10-06T23:41:50.964Z,101715.67
2022-10-06T23:43:55.560Z,101712.97
2022-10-06T23:46:00.372Z,101711.8
2022-10-06T23:48:05.325Z,101713.78
2022-10-06T23:50:10.045Z,101715.78
2022-10-06T23:52:14.652Z,101712.2
2022-10-06T23:54:19.393Z,101713.37
2022-10-06T23:56:24.041Z,101708.55
2022-10-06T23:58:28.671Z,101711.69
